Meteo Giornale » Osservazioni meteo Italia » Ronchi Dei Legionari

ore: 03:50 - Osservazioni Meteo Ronchi Dei Legionari
Lat. 45° 49' N Lon. 13° 29' E Alt. 12 metri s.l.m.

molto_nuvoloso Europe/Rome

4 °C

Molto Nuvoloso

Temp. 24 Ore

3 °C

15 °C

Nord

9.3 Km/h

Dew point 1 °C

Umidità 80 %

Visibilità  10 Km

Il sole sorge alle ore 07:10

Il sole tramonta alle ore 16:32

Data e Ora Cielo e Fenomeni T °C DP °C Um. % Pres. hPa Vis. km Vento km/h
Oggi h: 03:50 molto_nuvoloso Molto Nuvoloso 4 1 80 1014 10 N 9.3
Oggi h: 03:20 molto_nuvoloso Molto Nuvoloso 3 1 86 1014 10 N 3.7
Oggi h: 02:50 molto_nuvoloso Molto Nuvoloso 3 1 86 1015 10 N/NE 7.4
Oggi h: 02:20 molto_nuvoloso Molto Nuvoloso 4 1 80 1015 10 N 7.4
Oggi h: 01:50 molto_nuvoloso Molto Nuvoloso 4 1 80 1015 10 N 7.4
Oggi h: 01:20 molto_nuvoloso Molto Nuvoloso 4 1 80 1015 10 N/NE 7.4
Oggi h: 00:50 molto_nuvoloso Molto Nuvoloso 5 1 75 1016 10 N 3.7
Oggi h: 00:20 sereno Sereno 5 2 80 1016 10 N/NE 7.4
Ieri h: 23:50 sereno Sereno 3 1 86 1016 10 N 3.7
Ieri h: 23:20 sereno Sereno 4 2 86 1016 10 N 5.5
Ieri h: 22:50 sereno Sereno 5 2 80 1017 10 N 5.5
Ieri h: 22:20 sereno Sereno 4 1 80 1017 10 N 5.5
Ieri h: 21:50 sereno Sereno 6 1 70 1017 10 N/NE 9.3
Ieri h: 21:20 sereno Sereno 5 2 80 1017 10 N 5.5
Ieri h: 20:50 sereno Sereno 4 2 86 1017 10 N/NE 7.4
Ieri h: 20:20 sereno Sereno 3 1 86 1017 10 N 3.7
Ieri h: 19:50 sereno Sereno 5 2 80 1017 10 N/NE 7.4
Ieri h: 19:20 sereno Sereno 4 2 86 1017 10 N 7.4
Ieri h: 18:50 sereno Sereno 8 2 65 1017 10 N 3.7
Ieri h: 18:20 sereno Sereno 7 1 65 1017 10 N 5.5
Ieri h: 17:20 sereno Sereno 8 2 65 1017 10 SE 7.4
Ieri h: 16:50 sereno Sereno 8 2 65 1017 10 E/SE 13
Ieri h: 16:20 sereno Sereno 10 3 61 1017 10 E/SE 13
Ieri h: 15:50 sereno Sereno 12 3 54 1017 10 E/SE 13
Ieri h: 15:20 sereno Sereno 13 3 50 1017 10 E/SE 16.7
Ieri h: 14:50 sereno Sereno 15 3 44 1017 10 N 3.7
Ieri h: 14:20 sereno Sereno 14 3 47 1017 10 N 5.5
Ieri h: 13:50 sereno Sereno 14 3 47 1017 10 N 3.7
Ieri h: 13:20 sereno Sereno 15 4 47 1017 10 N 3.7
Ieri h: 12:50 sereno Sereno 13 3 50 1018 10 N 3.7
Ieri h: 12:20 sereno Sereno 14 4 50 1018 10 N 3.7
Ieri h: 11:50 sereno Sereno 13 3 50 1018 10 N 5.5
Ieri h: 11:20 sereno Sereno 12 4 57 1018 10 O/NO 7.4
Ieri h: 10:50 sereno Sereno 11 4 61 1018 10 O/NO 7.4
Ieri h: 10:20 sereno Sereno 11 4 61 1019 10 N 3.7
Ieri h: 09:50 sereno Sereno 9 4 70 1019 10 N 3.7
Ieri h: 09:20 poco_nuvoloso Poco Nuvoloso 7 5 87 1019 10 N 3.7
Ieri h: 08:50 nuvoloso Nuvoloso 4 3 93 1018 10 N 3.7
Ieri h: 08:20 molto_nuvoloso Molto Nuvoloso 4 3 93 1018 10 N 3.7
Ieri h: 07:50 molto_nuvoloso Molto Nuvoloso 4 3 93 1018 10 N 5.5
Ieri h: 07:20 molto_nuvoloso Molto Nuvoloso 3 3 100 1018 10 N 3.7
Ieri h: 06:50 molto_nuvoloso Molto Nuvoloso 4 3 93 1018 10 N 1.8
Ieri h: 06:20 molto_nuvoloso Molto Nuvoloso 5 3 86 1018 10 N 5.5
Ieri h: 05:50 molto_nuvoloso Molto Nuvoloso 4 3 93 1018 10 N 7.4
Ieri h: 05:20 molto_nuvoloso Molto Nuvoloso 3 3 100 1018 10 N 5.5
Ieri h: 04:50 molto_nuvoloso Molto Nuvoloso 4 3 93 1018 10 N 1.8
Ieri h: 04:20 molto_nuvoloso Molto Nuvoloso 4 3 93 1018 10 N 3.7
Ieri h: 03:50 molto_nuvoloso Molto Nuvoloso 4 3 93 1018 10 N 3.7